CheckWX is a tool to help pilots better visualize weather data.  It is not intended as a substitute for an official pre-flight weather briefing.

17:56:13 UTC

DTTF TAF
Gafsa Ksar International Airport
Gafsa, Tunisia
TAF DTTF 171500Z 1716/1801 24006KT 8000 SCT026

Oct-17@
16:00 UTC

Oct-17 @ 16:00 UTC

Oct-18@
01:00 UTC

Oct-18 @ 01:00 UTC

TAF DTTF 171500Z 1716/1801 24006KT 8000 SCT026
Wind
  • 240° at 6 KTS
Cloud Levels
  • Scattered at 2,600' AGL